Terminal Aerodrome Forecast
Issued by NWS

Home | Current Version | Previous Version | Text Only | Print | Product List | Glossary Off
Versions: 1 2 3 4 5 6 7 8 9 10 11 12 13 14 15 16 17 18 19 20 21 22 23

000
FTUS43 KGRB 201000 AAA
TAFATW
TAF AMD
KATW 201033Z 2011/2106 28009KT P6SM SCT050
     FM201400 31007KT P6SM SCT030 BKN050
     FM201700 32010G15KT P6SM VCSH BKN030 BKN040
     FM210000 35008KT P6SM BKN040=

USA.gov is the U.S. government's official web portal to all federal, state and local government web resources and services.